sensor_id;sensor_type;location;lat;lon;timestamp;P1;durP1;ratioP1;P2;durP2;ratioP2
22230;SDS011;11284;48.086;-1.652;2023-03-23T00:00:43;20.95;;;4.72;;
22230;SDS011;11284;48.086;-1.652;2023-03-23T00:03:09;18.52;;;4.25;;
22230;SDS011;11284;48.086;-1.652;2023-03-23T00:05:35;19.92;;;4.45;;
22230;SDS011;11284;48.086;-1.652;2023-03-23T00:08:01;16.58;;;4.47;;
22230;SDS011;11284;48.086;-1.652;2023-03-23T00:10:28;12.52;;;3.65;;
22230;SDS011;11284;48.086;-1.652;2023-03-23T00:12:58;23.58;;;4.05;;
22230;SDS011;11284;48.086;-1.652;2023-03-23T00:15:27;15.60;;;3.65;;
22230;SDS011;11284;48.086;-1.652;2023-03-23T00:17:58;20.73;;;4.25;;
22230;SDS011;11284;48.086;-1.652;2023-03-23T00:20:27;16.73;;;4.50;;
22230;SDS011;11284;48.086;-1.652;2023-03-23T00:22:54;18.63;;;3.80;;
22230;SDS011;11284;48.086;-1.652;2023-03-23T00:25:24;16.05;;;3.65;;
22230;SDS011;11284;48.086;-1.652;2023-03-23T00:27:50;19.38;;;3.60;;
22230;SDS011;11284;48.086;-1.652;2023-03-23T00:30:16;16.73;;;3.30;;
22230;SDS011;11284;48.086;-1.652;2023-03-23T00:32:42;19.67;;;4.20;;
22230;SDS011;11284;48.086;-1.652;2023-03-23T00:35:08;19.92;;;4.18;;
22230;SDS011;11284;48.086;-1.652;2023-03-23T00:37:34;17.77;;;4.43;;
22230;SDS011;11284;48.086;-1.652;2023-03-23T00:40:01;17.33;;;3.60;;
22230;SDS011;11284;48.086;-1.652;2023-03-23T00:42:31;15.00;;;3.30;;
22230;SDS011;11284;48.086;-1.652;2023-03-23T00:45:02;13.07;;;2.90;;
22230;SDS011;11284;48.086;-1.652;2023-03-23T00:47:31;14.38;;;3.10;;
22230;SDS011;11284;48.086;-1.652;2023-03-23T00:50:01;13.50;;;2.78;;
22230;SDS011;11284;48.086;-1.652;2023-03-23T00:52:27;16.98;;;2.92;;
22230;SDS011;11284;48.086;-1.652;2023-03-23T00:54:53;14.60;;;3.45;;
22230;SDS011;11284;48.086;-1.652;2023-03-23T00:57:19;11.93;;;2.83;;
22230;SDS011;11284;48.086;-1.652;2023-03-23T00:59:49;14.98;;;3.13;;
22230;SDS011;11284;48.086;-1.652;2023-03-23T01:02:15;12.80;;;2.50;;
22230;SDS011;11284;48.086;-1.652;2023-03-23T01:04:41;8.82;;;2.58;;
22230;SDS011;11284;48.086;-1.652;2023-03-23T01:07:09;10.38;;;2.60;;
22230;SDS011;11284;48.086;-1.652;2023-03-23T01:09:37;12.57;;;2.83;;
22230;SDS011;11284;48.086;-1.652;2023-03-23T01:12:04;13.68;;;3.00;;
22230;SDS011;11284;48.086;-1.652;2023-03-23T01:14:30;10.25;;;2.70;;
22230;SDS011;11284;48.086;-1.652;2023-03-23T01:16:56;14.07;;;2.95;;
22230;SDS011;11284;48.086;-1.652;2023-03-23T01:19:23;13.23;;;3.35;;
22230;SDS011;11284;48.086;-1.652;2023-03-23T01:21:49;14.07;;;3.30;;
22230;SDS011;11284;48.086;-1.652;2023-03-23T01:24:15;11.65;;;3.03;;
22230;SDS011;11284;48.086;-1.652;2023-03-23T01:26:41;10.15;;;2.92;;
22230;SDS011;11284;48.086;-1.652;2023-03-23T01:29:07;11.20;;;2.50;;
22230;SDS011;11284;48.086;-1.652;2023-03-23T01:31:33;10.77;;;2.90;;
22230;SDS011;11284;48.086;-1.652;2023-03-23T01:34:01;9.32;;;2.20;;
22230;SDS011;11284;48.086;-1.652;2023-03-23T01:36:28;14.82;;;3.28;;
22230;SDS011;11284;48.086;-1.652;2023-03-23T01:38:57;17.58;;;2.95;;
22230;SDS011;11284;48.086;-1.652;2023-03-23T01:41:24;10.63;;;2.50;;
22230;SDS011;11284;48.086;-1.652;2023-03-23T01:43:54;12.55;;;3.15;;
22230;SDS011;11284;48.086;-1.652;2023-03-23T01:46:20;12.40;;;2.67;;
22230;SDS011;11284;48.086;-1.652;2023-03-23T01:48:47;14.68;;;3.03;;
22230;SDS011;11284;48.086;-1.652;2023-03-23T01:51:15;14.80;;;4.18;;
22230;SDS011;11284;48.086;-1.652;2023-03-23T01:53:46;12.40;;;3.42;;
22230;SDS011;11284;48.086;-1.652;2023-03-23T01:56:12;13.68;;;3.05;;
22230;SDS011;11284;48.086;-1.652;2023-03-23T01:58:39;11.88;;;3.05;;
22230;SDS011;11284;48.086;-1.652;2023-03-23T02:01:07;14.75;;;2.97;;
22230;SDS011;11284;48.086;-1.652;2023-03-23T02:03:36;12.55;;;2.97;;
22230;SDS011;11284;48.086;-1.652;2023-03-23T02:06:03;12.73;;;3.05;;
22230;SDS011;11284;48.086;-1.652;2023-03-23T02:08:29;15.63;;;4.03;;
22230;SDS011;11284;48.086;-1.652;2023-03-23T02:10:57;13.90;;;3.40;;
22230;SDS011;11284;48.086;-1.652;2023-03-23T02:13:23;15.60;;;3.20;;
22230;SDS011;11284;48.086;-1.652;2023-03-23T02:25:55;18.35;;;3.90;;
22230;SDS011;11284;48.086;-1.652;2023-03-23T02:38:31;18.83;;;3.33;;
22230;SDS011;11284;48.086;-1.652;2023-03-23T02:40:59;14.98;;;3.17;;
22230;SDS011;11284;48.086;-1.652;2023-03-23T02:43:27;26.73;;;3.75;;
22230;SDS011;11284;48.086;-1.652;2023-03-23T02:45:54;13.95;;;2.90;;
22230;SDS011;11284;48.086;-1.652;2023-03-23T02:48:22;16.13;;;3.67;;
22230;SDS011;11284;48.086;-1.652;2023-03-23T02:50:51;15.00;;;3.08;;
22230;SDS011;11284;48.086;-1.652;2023-03-23T02:53:19;15.90;;;3.92;;
22230;SDS011;11284;48.086;-1.652;2023-03-23T02:55:46;12.35;;;2.72;;
22230;SDS011;11284;48.086;-1.652;2023-03-23T02:58:13;17.30;;;3.78;;
22230;SDS011;11284;48.086;-1.652;2023-03-23T03:00:39;13.05;;;3.05;;
22230;SDS011;11284;48.086;-1.652;2023-03-23T03:03:09;16.50;;;3.72;;
22230;SDS011;11284;48.086;-1.652;2023-03-23T03:10:42;16.83;;;3.60;;
22230;SDS011;11284;48.086;-1.652;2023-03-23T03:15:49;16.67;;;3.42;;
22230;SDS011;11284;48.086;-1.652;2023-03-23T03:21:07;14.80;;;3.85;;
22230;SDS011;11284;48.086;-1.652;2023-03-23T03:23:38;15.98;;;3.13;;
22230;SDS011;11284;48.086;-1.652;2023-03-23T03:26:06;17.70;;;3.75;;
22230;SDS011;11284;48.086;-1.652;2023-03-23T03:28:34;14.93;;;3.45;;
22230;SDS011;11284;48.086;-1.652;2023-03-23T03:31:01;15.52;;;3.53;;
22230;SDS011;11284;48.086;-1.652;2023-03-23T03:33:29;16.90;;;2.97;;
22230;SDS011;11284;48.086;-1.652;2023-03-23T03:35:59;14.10;;;3.40;;
22230;SDS011;11284;48.086;-1.652;2023-03-23T03:38:26;10.93;;;3.03;;
22230;SDS011;11284;48.086;-1.652;2023-03-23T03:40:53;13.57;;;3.33;;
22230;SDS011;11284;48.086;-1.652;2023-03-23T03:43:19;14.68;;;3.28;;
22230;SDS011;11284;48.086;-1.652;2023-03-23T03:45:45;16.00;;;3.28;;
22230;SDS011;11284;48.086;-1.652;2023-03-23T03:48:11;15.05;;;3.80;;
22230;SDS011;11284;48.086;-1.652;2023-03-23T03:50:37;19.42;;;4.10;;
22230;SDS011;11284;48.086;-1.652;2023-03-23T03:53:04;17.35;;;3.30;;
22230;SDS011;11284;48.086;-1.652;2023-03-23T03:55:31;16.02;;;3.05;;
22230;SDS011;11284;48.086;-1.652;2023-03-23T03:58:00;13.30;;;3.00;;
22230;SDS011;11284;48.086;-1.652;2023-03-23T04:00:26;14.23;;;3.50;;
22230;SDS011;11284;48.086;-1.652;2023-03-23T04:02:52;13.23;;;3.28;;
22230;SDS011;11284;48.086;-1.652;2023-03-23T04:05:20;15.10;;;3.42;;
22230;SDS011;11284;48.086;-1.652;2023-03-23T04:07:46;20.95;;;3.70;;
22230;SDS011;11284;48.086;-1.652;2023-03-23T04:10:16;19.02;;;3.60;;
22230;SDS011;11284;48.086;-1.652;2023-03-23T04:12:44;18.80;;;3.50;;
22230;SDS011;11284;48.086;-1.652;2023-03-23T04:15:10;14.02;;;3.53;;
22230;SDS011;11284;48.086;-1.652;2023-03-23T04:17:36;17.58;;;3.72;;
22230;SDS011;11284;48.086;-1.652;2023-03-23T04:20:03;13.98;;;3.38;;
22230;SDS011;11284;48.086;-1.652;2023-03-23T04:22:37;24.92;;;4.43;;
22230;SDS011;11284;48.086;-1.652;2023-03-23T04:25:03;18.27;;;3.97;;
22230;SDS011;11284;48.086;-1.652;2023-03-23T04:27:31;16.67;;;4.07;;
22230;SDS011;11284;48.086;-1.652;2023-03-23T04:29:57;15.98;;;3.70;;
22230;SDS011;11284;48.086;-1.652;2023-03-23T04:32:26;19.08;;;4.10;;
22230;SDS011;11284;48.086;-1.652;2023-03-23T04:34:54;19.17;;;3.50;;
22230;SDS011;11284;48.086;-1.652;2023-03-23T04:37:20;18.75;;;4.00;;
22230;SDS011;11284;48.086;-1.652;2023-03-23T04:39:50;17.48;;;3.40;;
22230;SDS011;11284;48.086;-1.652;2023-03-23T04:42:28;19.92;;;4.03;;
22230;SDS011;11284;48.086;-1.652;2023-03-23T04:44:55;21.17;;;4.28;;
22230;SDS011;11284;48.086;-1.652;2023-03-23T04:47:22;18.25;;;3.90;;
22230;SDS011;11284;48.086;-1.652;2023-03-23T04:49:48;19.83;;;3.92;;
22230;SDS011;11284;48.086;-1.652;2023-03-23T04:52:14;16.08;;;2.97;;
22230;SDS011;11284;48.086;-1.652;2023-03-23T04:54:40;19.95;;;3.75;;
22230;SDS011;11284;48.086;-1.652;2023-03-23T04:57:06;15.82;;;4.63;;
22230;SDS011;11284;48.086;-1.652;2023-03-23T04:59:33;18.42;;;3.88;;
22230;SDS011;11284;48.086;-1.652;2023-03-23T05:01:59;19.73;;;4.03;;
22230;SDS011;11284;48.086;-1.652;2023-03-23T05:04:25;13.10;;;3.42;;
22230;SDS011;11284;48.086;-1.652;2023-03-23T05:06:51;15.77;;;3.67;;
22230;SDS011;11284;48.086;-1.652;2023-03-23T05:09:18;15.52;;;3.58;;
22230;SDS011;11284;48.086;-1.652;2023-03-23T05:11:44;15.02;;;3.72;;
22230;SDS011;11284;48.086;-1.652;2023-03-23T05:14:11;16.52;;;3.60;;
22230;SDS011;11284;48.086;-1.652;2023-03-23T05:16:37;18.88;;;3.55;;
22230;SDS011;11284;48.086;-1.652;2023-03-23T05:19:03;14.02;;;2.88;;
22230;SDS011;11284;48.086;-1.652;2023-03-23T05:21:30;14.35;;;3.28;;
22230;SDS011;11284;48.086;-1.652;2023-03-23T05:23:56;15.40;;;3.67;;
22230;SDS011;11284;48.086;-1.652;2023-03-23T05:26:25;15.15;;;3.20;;
22230;SDS011;11284;48.086;-1.652;2023-03-23T05:28:54;14.55;;;2.88;;
22230;SDS011;11284;48.086;-1.652;2023-03-23T05:31:21;16.00;;;3.50;;
22230;SDS011;11284;48.086;-1.652;2023-03-23T05:33:48;14.90;;;3.15;;
22230;SDS011;11284;48.086;-1.652;2023-03-23T05:36:14;14.43;;;3.42;;
22230;SDS011;11284;48.086;-1.652;2023-03-23T05:38:40;13.07;;;3.20;;
22230;SDS011;11284;48.086;-1.652;2023-03-23T05:41:12;15.30;;;4.13;;
22230;SDS011;11284;48.086;-1.652;2023-03-23T05:43:38;16.42;;;3.53;;
22230;SDS011;11284;48.086;-1.652;2023-03-23T05:46:04;16.25;;;3.70;;
22230;SDS011;11284;48.086;-1.652;2023-03-23T05:48:31;17.33;;;3.80;;
22230;SDS011;11284;48.086;-1.652;2023-03-23T05:50:58;17.42;;;4.03;;
22230;SDS011;11284;48.086;-1.652;2023-03-23T05:53:24;16.92;;;4.78;;
22230;SDS011;11284;48.086;-1.652;2023-03-23T05:55:50;17.80;;;4.22;;
22230;SDS011;11284;48.086;-1.652;2023-03-23T05:58:17;19.13;;;3.70;;
22230;SDS011;11284;48.086;-1.652;2023-03-23T06:00:43;17.60;;;3.80;;
22230;SDS011;11284;48.086;-1.652;2023-03-23T06:03:10;22.38;;;4.75;;
22230;SDS011;11284;48.086;-1.652;2023-03-23T06:05:41;21.42;;;4.78;;
22230;SDS011;11284;48.086;-1.652;2023-03-23T06:08:09;18.25;;;4.57;;
22230;SDS011;11284;48.086;-1.652;2023-03-23T06:10:35;22.15;;;4.72;;
22230;SDS011;11284;48.086;-1.652;2023-03-23T06:13:01;19.25;;;4.68;;
22230;SDS011;11284;48.086;-1.652;2023-03-23T06:15:27;19.65;;;5.18;;
22230;SDS011;11284;48.086;-1.652;2023-03-23T06:17:58;16.52;;;4.63;;
22230;SDS011;11284;48.086;-1.652;2023-03-23T06:20:24;22.27;;;4.70;;
22230;SDS011;11284;48.086;-1.652;2023-03-23T06:22:50;21.67;;;5.20;;
22230;SDS011;11284;48.086;-1.652;2023-03-23T06:25:17;24.73;;;4.80;;
22230;SDS011;11284;48.086;-1.652;2023-03-23T06:27:43;25.02;;;4.97;;
22230;SDS011;11284;48.086;-1.652;2023-03-23T06:30:12;19.80;;;4.85;;
22230;SDS011;11284;48.086;-1.652;2023-03-23T06:32:40;21.70;;;4.40;;
22230;SDS011;11284;48.086;-1.652;2023-03-23T06:35:06;25.55;;;4.80;;
22230;SDS011;11284;48.086;-1.652;2023-03-23T06:37:35;23.23;;;5.60;;
22230;SDS011;11284;48.086;-1.652;2023-03-23T06:40:01;22.75;;;4.75;;
22230;SDS011;11284;48.086;-1.652;2023-03-23T06:42:29;22.90;;;4.75;;
22230;SDS011;11284;48.086;-1.652;2023-03-23T06:44:55;24.73;;;4.50;;
22230;SDS011;11284;48.086;-1.652;2023-03-23T06:47:23;22.13;;;5.28;;
22230;SDS011;11284;48.086;-1.652;2023-03-23T06:49:49;20.40;;;5.00;;
22230;SDS011;11284;48.086;-1.652;2023-03-23T06:52:15;27.02;;;4.88;;
22230;SDS011;11284;48.086;-1.652;2023-03-23T06:54:42;23.15;;;5.10;;
22230;SDS011;11284;48.086;-1.652;2023-03-23T06:57:08;24.05;;;4.70;;
22230;SDS011;11284;48.086;-1.652;2023-03-23T06:59:34;19.05;;;4.40;;
22230;SDS011;11284;48.086;-1.652;2023-03-23T07:02:00;21.90;;;4.43;;
22230;SDS011;11284;48.086;-1.652;2023-03-23T07:04:27;21.20;;;4.70;;
22230;SDS011;11284;48.086;-1.652;2023-03-23T07:06:53;19.58;;;4.65;;
22230;SDS011;11284;48.086;-1.652;2023-03-23T07:09:19;22.52;;;4.45;;
22230;SDS011;11284;48.086;-1.652;2023-03-23T07:11:45;25.75;;;4.82;;
22230;SDS011;11284;48.086;-1.652;2023-03-23T07:14:12;22.60;;;5.97;;
22230;SDS011;11284;48.086;-1.652;2023-03-23T07:16:38;24.92;;;4.78;;
22230;SDS011;11284;48.086;-1.652;2023-03-23T07:19:04;23.50;;;5.22;;
22230;SDS011;11284;48.086;-1.652;2023-03-23T07:21:31;22.17;;;5.05;;
22230;SDS011;11284;48.086;-1.652;2023-03-23T07:23:57;25.27;;;5.50;;
22230;SDS011;11284;48.086;-1.652;2023-03-23T07:26:23;29.83;;;5.13;;
22230;SDS011;11284;48.086;-1.652;2023-03-23T07:28:49;24.55;;;4.43;;
22230;SDS011;11284;48.086;-1.652;2023-03-23T07:31:15;28.15;;;5.25;;
22230;SDS011;11284;48.086;-1.652;2023-03-23T07:33:41;19.83;;;5.30;;
22230;SDS011;11284;48.086;-1.652;2023-03-23T07:36:08;24.45;;;5.22;;
22230;SDS011;11284;48.086;-1.652;2023-03-23T07:38:35;26.70;;;5.15;;
22230;SDS011;11284;48.086;-1.652;2023-03-23T07:41:01;27.08;;;5.45;;
22230;SDS011;11284;48.086;-1.652;2023-03-23T07:43:28;23.00;;;4.90;;
22230;SDS011;11284;48.086;-1.652;2023-03-23T07:45:54;26.38;;;5.35;;
22230;SDS011;11284;48.086;-1.652;2023-03-23T07:48:20;25.50;;;5.30;;
22230;SDS011;11284;48.086;-1.652;2023-03-23T07:50:46;29.45;;;5.88;;
22230;SDS011;11284;48.086;-1.652;2023-03-23T07:53:12;28.60;;;5.75;;
22230;SDS011;11284;48.086;-1.652;2023-03-23T07:55:38;26.98;;;6.28;;
22230;SDS011;11284;48.086;-1.652;2023-03-23T07:58:04;29.95;;;5.97;;
22230;SDS011;11284;48.086;-1.652;2023-03-23T08:00:31;22.42;;;5.60;;
22230;SDS011;11284;48.086;-1.652;2023-03-23T08:02:58;23.42;;;5.22;;
22230;SDS011;11284;48.086;-1.652;2023-03-23T08:05:25;26.02;;;5.47;;
22230;SDS011;11284;48.086;-1.652;2023-03-23T08:07:53;27.77;;;6.05;;
22230;SDS011;11284;48.086;-1.652;2023-03-23T08:10:19;25.70;;;5.47;;
22230;SDS011;11284;48.086;-1.652;2023-03-23T08:12:49;27.08;;;5.53;;
22230;SDS011;11284;48.086;-1.652;2023-03-23T08:15:16;31.80;;;7.00;;
22230;SDS011;11284;48.086;-1.652;2023-03-23T08:17:42;27.20;;;5.57;;
22230;SDS011;11284;48.086;-1.652;2023-03-23T08:20:10;24.77;;;5.63;;
22230;SDS011;11284;48.086;-1.652;2023-03-23T08:22:41;26.13;;;5.93;;
22230;SDS011;11284;48.086;-1.652;2023-03-23T08:25:08;25.40;;;5.10;;
22230;SDS011;11284;48.086;-1.652;2023-03-23T08:27:34;26.25;;;6.00;;
22230;SDS011;11284;48.086;-1.652;2023-03-23T08:30:01;33.03;;;6.13;;
22230;SDS011;11284;48.086;-1.652;2023-03-23T08:32:27;26.98;;;5.57;;
22230;SDS011;11284;48.086;-1.652;2023-03-23T08:34:54;30.23;;;5.00;;
22230;SDS011;11284;48.086;-1.652;2023-03-23T08:37:21;31.50;;;5.72;;
22230;SDS011;11284;48.086;-1.652;2023-03-23T08:39:49;22.95;;;5.10;;
22230;SDS011;11284;48.086;-1.652;2023-03-23T08:42:16;24.00;;;5.40;;
22230;SDS011;11284;48.086;-1.652;2023-03-23T08:44:43;23.30;;;5.35;;
22230;SDS011;11284;48.086;-1.652;2023-03-23T08:47:09;23.88;;;5.75;;
22230;SDS011;11284;48.086;-1.652;2023-03-23T08:49:35;21.83;;;4.70;;
22230;SDS011;11284;48.086;-1.652;2023-03-23T08:52:02;23.73;;;5.22;;
22230;SDS011;11284;48.086;-1.652;2023-03-23T08:54:28;23.13;;;4.53;;
22230;SDS011;11284;48.086;-1.652;2023-03-23T08:57:00;27.73;;;5.55;;
22230;SDS011;11284;48.086;-1.652;2023-03-23T08:59:26;20.77;;;4.93;;
22230;SDS011;11284;48.086;-1.652;2023-03-23T09:01:53;22.75;;;5.65;;
22230;SDS011;11284;48.086;-1.652;2023-03-23T09:04:19;22.45;;;5.28;;
22230;SDS011;11284;48.086;-1.652;2023-03-23T09:06:45;21.00;;;4.68;;
22230;SDS011;11284;48.086;-1.652;2023-03-23T09:09:12;23.23;;;5.25;;
22230;SDS011;11284;48.086;-1.652;2023-03-23T09:11:38;21.38;;;4.82;;
22230;SDS011;11284;48.086;-1.652;2023-03-23T09:14:05;19.85;;;4.55;;
22230;SDS011;11284;48.086;-1.652;2023-03-23T09:16:32;22.10;;;5.20;;
22230;SDS011;11284;48.086;-1.652;2023-03-23T09:18:59;19.77;;;5.75;;
22230;SDS011;11284;48.086;-1.652;2023-03-23T09:21:26;21.42;;;5.00;;
22230;SDS011;11284;48.086;-1.652;2023-03-23T09:23:52;19.60;;;4.53;;
22230;SDS011;11284;48.086;-1.652;2023-03-23T09:26:21;18.23;;;4.13;;
22230;SDS011;11284;48.086;-1.652;2023-03-23T09:28:47;20.60;;;4.80;;
22230;SDS011;11284;48.086;-1.652;2023-03-23T09:31:13;20.75;;;4.78;;
22230;SDS011;11284;48.086;-1.652;2023-03-23T09:33:39;20.80;;;4.68;;
22230;SDS011;11284;48.086;-1.652;2023-03-23T09:36:05;21.10;;;4.40;;
22230;SDS011;11284;48.086;-1.652;2023-03-23T09:38:33;20.95;;;5.32;;
22230;SDS011;11284;48.086;-1.652;2023-03-23T09:48:58;15.60;;;4.10;;
22230;SDS011;11284;48.086;-1.652;2023-03-23T09:53:55;15.57;;;3.70;;
22230;SDS011;11284;48.086;-1.652;2023-03-23T09:56:22;18.70;;;4.65;;
22230;SDS011;11284;48.086;-1.652;2023-03-23T10:01:28;23.70;;;5.10;;
22230;SDS011;11284;48.086;-1.652;2023-03-23T10:04:32;15.95;;;3.95;;
22230;SDS011;11284;48.086;-1.652;2023-03-23T10:06:50;18.40;;;4.22;;
22230;SDS011;11284;48.086;-1.652;2023-03-23T10:09:17;19.77;;;3.90;;
22230;SDS011;11284;48.086;-1.652;2023-03-23T10:17:17;16.38;;;3.35;;
22230;SDS011;11284;48.086;-1.652;2023-03-23T10:19:55;16.05;;;3.58;;
22230;SDS011;11284;48.086;-1.652;2023-03-23T10:22:26;14.02;;;3.15;;
22230;SDS011;11284;48.086;-1.652;2023-03-23T10:24:59;13.63;;;3.72;;
22230;SDS011;11284;48.086;-1.652;2023-03-23T10:27:39;18.42;;;3.83;;
22230;SDS011;11284;48.086;-1.652;2023-03-23T10:35:14;14.82;;;3.50;;
22230;SDS011;11284;48.086;-1.652;2023-03-23T10:37:44;16.38;;;3.60;;
22230;SDS011;11284;48.086;-1.652;2023-03-23T10:40:19;16.92;;;3.65;;
22230;SDS011;11284;48.086;-1.652;2023-03-23T10:42:46;17.67;;;3.70;;
22230;SDS011;11284;48.086;-1.652;2023-03-23T10:47:43;14.20;;;3.45;;
22230;SDS011;11284;48.086;-1.652;2023-03-23T10:50:12;19.83;;;4.70;;
22230;SDS011;11284;48.086;-1.652;2023-03-23T10:52:39;18.70;;;3.78;;
22230;SDS011;11284;48.086;-1.652;2023-03-23T10:57:32;20.45;;;4.07;;
22230;SDS011;11284;48.086;-1.652;2023-03-23T11:00:06;16.15;;;3.67;;
22230;SDS011;11284;48.086;-1.652;2023-03-23T11:02:41;20.38;;;4.25;;
22230;SDS011;11284;48.086;-1.652;2023-03-23T11:05:20;18.45;;;3.97;;
22230;SDS011;11284;48.086;-1.652;2023-03-23T11:07:52;16.83;;;3.80;;
22230;SDS011;11284;48.086;-1.652;2023-03-23T11:10:23;16.80;;;3.72;;
22230;SDS011;11284;48.086;-1.652;2023-03-23T11:12:49;18.42;;;4.40;;
22230;SDS011;11284;48.086;-1.652;2023-03-23T11:15:26;14.02;;;3.72;;
22230;SDS011;11284;48.086;-1.652;2023-03-23T11:17:56;19.80;;;4.28;;
22230;SDS011;11284;48.086;-1.652;2023-03-23T11:20:23;17.45;;;4.00;;
22230;SDS011;11284;48.086;-1.652;2023-03-23T11:22:50;18.95;;;4.30;;
22230;SDS011;11284;48.086;-1.652;2023-03-23T11:25:16;15.65;;;4.20;;
22230;SDS011;11284;48.086;-1.652;2023-03-23T11:27:42;19.20;;;3.97;;
22230;SDS011;11284;48.086;-1.652;2023-03-23T11:30:19;19.83;;;4.18;;
22230;SDS011;11284;48.086;-1.652;2023-03-23T11:32:46;21.33;;;4.65;;
22230;SDS011;11284;48.086;-1.652;2023-03-23T11:35:16;24.92;;;4.72;;
22230;SDS011;11284;48.086;-1.652;2023-03-23T11:37:43;25.83;;;4.32;;
22230;SDS011;11284;48.086;-1.652;2023-03-23T11:40:15;25.13;;;5.93;;
22230;SDS011;11284;48.086;-1.652;2023-03-23T11:47:58;22.10;;;5.25;;
22230;SDS011;11284;48.086;-1.652;2023-03-23T11:50:31;22.42;;;4.95;;
22230;SDS011;11284;48.086;-1.652;2023-03-23T11:58:19;22.02;;;5.20;;
22230;SDS011;11284;48.086;-1.652;2023-03-23T12:00:50;20.77;;;5.07;;
22230;SDS011;11284;48.086;-1.652;2023-03-23T12:03:17;25.88;;;5.32;;
22230;SDS011;11284;48.086;-1.652;2023-03-23T12:05:45;22.20;;;4.88;;
22230;SDS011;11284;48.086;-1.652;2023-03-23T12:15:57;23.05;;;5.28;;
22230;SDS011;11284;48.086;-1.652;2023-03-23T12:23:43;22.05;;;4.40;;
22230;SDS011;11284;48.086;-1.652;2023-03-23T12:26:13;23.52;;;5.40;;
22230;SDS011;11284;48.086;-1.652;2023-03-23T12:28:59;20.27;;;4.85;;
22230;SDS011;11284;48.086;-1.652;2023-03-23T12:31:50;18.92;;;4.88;;
22230;SDS011;11284;48.086;-1.652;2023-03-23T12:34:24;22.55;;;5.20;;
22230;SDS011;11284;48.086;-1.652;2023-03-23T12:44:40;22.63;;;5.32;;
22230;SDS011;11284;48.086;-1.652;2023-03-23T12:55:27;24.92;;;4.95;;
22230;SDS011;11284;48.086;-1.652;2023-03-23T13:01:01;24.90;;;5.00;;
22230;SDS011;11284;48.086;-1.652;2023-03-23T13:03:43;23.55;;;5.85;;
22230;SDS011;11284;48.086;-1.652;2023-03-23T13:08:54;20.35;;;4.90;;
22230;SDS011;11284;48.086;-1.652;2023-03-23T13:11:39;22.27;;;4.18;;
22230;SDS011;11284;48.086;-1.652;2023-03-23T13:22:04;20.65;;;4.13;;
22230;SDS011;11284;48.086;-1.652;2023-03-23T13:24:33;21.00;;;4.30;;
22230;SDS011;11284;48.086;-1.652;2023-03-23T13:27:01;18.63;;;4.20;;
22230;SDS011;11284;48.086;-1.652;2023-03-23T13:29:27;19.92;;;4.82;;
22230;SDS011;11284;48.086;-1.652;2023-03-23T13:34:40;19.38;;;4.25;;
22230;SDS011;11284;48.086;-1.652;2023-03-23T13:39:52;18.65;;;4.65;;
22230;SDS011;11284;48.086;-1.652;2023-03-23T13:42:22;21.20;;;4.43;;
22230;SDS011;11284;48.086;-1.652;2023-03-23T13:49:54;17.83;;;3.72;;
22230;SDS011;11284;48.086;-1.652;2023-03-23T13:54:46;18.30;;;4.82;;
22230;SDS011;11284;48.086;-1.652;2023-03-23T14:00:26;21.58;;;4.20;;
22230;SDS011;11284;48.086;-1.652;2023-03-23T14:05:39;16.13;;;3.97;;
22230;SDS011;11284;48.086;-1.652;2023-03-23T14:13:34;17.83;;;4.28;;
22230;SDS011;11284;48.086;-1.652;2023-03-23T14:18:37;21.98;;;4.40;;
22230;SDS011;11284;48.086;-1.652;2023-03-23T14:21:05;16.67;;;4.07;;
22230;SDS011;11284;48.086;-1.652;2023-03-23T14:23:31;16.40;;;4.13;;
22230;SDS011;11284;48.086;-1.652;2023-03-23T14:25:59;15.40;;;3.92;;
22230;SDS011;11284;48.086;-1.652;2023-03-23T14:28:32;16.27;;;3.42;;
22230;SDS011;11284;48.086;-1.652;2023-03-23T14:30:58;13.82;;;3.50;;
22230;SDS011;11284;48.086;-1.652;2023-03-23T14:33:25;13.45;;;3.20;;
22230;SDS011;11284;48.086;-1.652;2023-03-23T14:35:52;11.15;;;3.47;;
22230;SDS011;11284;48.086;-1.652;2023-03-23T14:38:22;14.68;;;3.28;;
22230;SDS011;11284;48.086;-1.652;2023-03-23T14:40:51;12.20;;;3.83;;
22230;SDS011;11284;48.086;-1.652;2023-03-23T14:43:19;15.25;;;3.90;;
22230;SDS011;11284;48.086;-1.652;2023-03-23T14:45:47;13.77;;;3.25;;
22230;SDS011;11284;48.086;-1.652;2023-03-23T14:48:14;13.48;;;3.00;;
22230;SDS011;11284;48.086;-1.652;2023-03-23T14:50:48;13.98;;;3.63;;
22230;SDS011;11284;48.086;-1.652;2023-03-23T14:53:22;12.75;;;2.80;;
22230;SDS011;11284;48.086;-1.652;2023-03-23T14:58:16;10.55;;;2.75;;
22230;SDS011;11284;48.086;-1.652;2023-03-23T15:00:45;14.18;;;3.08;;
22230;SDS011;11284;48.086;-1.652;2023-03-23T15:03:13;10.52;;;3.42;;
22230;SDS011;11284;48.086;-1.652;2023-03-23T15:05:44;10.13;;;2.50;;
22230;SDS011;11284;48.086;-1.652;2023-03-23T15:08:17;11.02;;;2.60;;
22230;SDS011;11284;48.086;-1.652;2023-03-23T15:10:51;11.95;;;2.80;;
22230;SDS011;11284;48.086;-1.652;2023-03-23T15:15:44;12.45;;;2.72;;
22230;SDS011;11284;48.086;-1.652;2023-03-23T15:18:22;9.90;;;2.60;;
22230;SDS011;11284;48.086;-1.652;2023-03-23T15:20:51;13.45;;;2.58;;
22230;SDS011;11284;48.086;-1.652;2023-03-23T15:23:21;10.20;;;2.45;;
22230;SDS011;11284;48.086;-1.652;2023-03-23T15:25:48;8.93;;;2.33;;
22230;SDS011;11284;48.086;-1.652;2023-03-23T15:28:16;8.68;;;2.15;;
22230;SDS011;11284;48.086;-1.652;2023-03-23T15:31:02;11.43;;;3.10;;
22230;SDS011;11284;48.086;-1.652;2023-03-23T15:33:35;11.05;;;2.80;;
22230;SDS011;11284;48.086;-1.652;2023-03-23T15:36:05;8.73;;;1.90;;
22230;SDS011;11284;48.086;-1.652;2023-03-23T15:38:32;8.90;;;2.05;;
22230;SDS011;11284;48.086;-1.652;2023-03-23T15:41:04;9.10;;;1.90;;
22230;SDS011;11284;48.086;-1.652;2023-03-23T15:43:31;7.40;;;1.67;;
22230;SDS011;11284;48.086;-1.652;2023-03-23T15:45:59;5.88;;;1.75;;
22230;SDS011;11284;48.086;-1.652;2023-03-23T15:48:28;5.97;;;1.75;;
22230;SDS011;11284;48.086;-1.652;2023-03-23T15:50:54;7.70;;;2.10;;
22230;SDS011;11284;48.086;-1.652;2023-03-23T15:53:31;6.75;;;1.50;;
22230;SDS011;11284;48.086;-1.652;2023-03-23T15:55:58;9.95;;;2.15;;
22230;SDS011;11284;48.086;-1.652;2023-03-23T15:58:25;7.03;;;2.03;;
22230;SDS011;11284;48.086;-1.652;2023-03-23T16:00:51;10.80;;;6.07;;
22230;SDS011;11284;48.086;-1.652;2023-03-23T16:03:28;8.45;;;3.35;;
22230;SDS011;11284;48.086;-1.652;2023-03-23T16:05:54;6.20;;;1.63;;
22230;SDS011;11284;48.086;-1.652;2023-03-23T16:08:21;4.50;;;1.42;;
22230;SDS011;11284;48.086;-1.652;2023-03-23T16:10:48;5.90;;;1.33;;
22230;SDS011;11284;48.086;-1.652;2023-03-23T16:13:14;8.98;;;1.67;;
22230;SDS011;11284;48.086;-1.652;2023-03-23T16:15:40;5.95;;;1.50;;
22230;SDS011;11284;48.086;-1.652;2023-03-23T16:18:09;6.30;;;1.60;;
22230;SDS011;11284;48.086;-1.652;2023-03-23T16:20:40;9.30;;;2.35;;
22230;SDS011;11284;48.086;-1.652;2023-03-23T16:23:06;7.18;;;1.80;;
22230;SDS011;11284;48.086;-1.652;2023-03-23T16:25:32;5.85;;;1.95;;
22230;SDS011;11284;48.086;-1.652;2023-03-23T16:27:57;5.72;;;1.75;;
22230;SDS011;11284;48.086;-1.652;2023-03-23T16:30:24;6.93;;;1.92;;
22230;SDS011;11284;48.086;-1.652;2023-03-23T16:32:51;6.18;;;1.75;;
22230;SDS011;11284;48.086;-1.652;2023-03-23T16:35:17;6.88;;;1.92;;
22230;SDS011;11284;48.086;-1.652;2023-03-23T16:37:47;5.80;;;1.98;;
22230;SDS011;11284;48.086;-1.652;2023-03-23T16:40:14;7.82;;;2.13;;
22230;SDS011;11284;48.086;-1.652;2023-03-23T16:42:40;6.28;;;1.65;;
22230;SDS011;11284;48.086;-1.652;2023-03-23T16:45:06;5.72;;;1.90;;
22230;SDS011;11284;48.086;-1.652;2023-03-23T16:47:32;5.60;;;1.80;;
22230;SDS011;11284;48.086;-1.652;2023-03-23T16:49:58;5.30;;;1.60;;
22230;SDS011;11284;48.086;-1.652;2023-03-23T16:52:24;14.32;;;8.48;;